Time;durP1;ratioP1;P1;durP2;ratioP2;P2;SDS_P1;SDS_P2;PMS_P1;PMS_P2;Temp;Humidity;BMP_temperature;BMP_pressure;BME280_temperature;BME280_humidity;BME280_pressure;Samples;Min_cycle;Max_cycle;Signal;HPM_P1;HPM_P2
2023/02/02 00:01:32;;;;;;;;;;;;;;;5.00;51.39;98757.25;4956674;29;20017;-71
2023/02/02 00:03:57;;;;;;;;;;;;;;;4.97;51.55;98753.06;4957342;29;19929;-71
2023/02/02 00:06:23;;;;;;;;;;;;;;;4.96;51.22;98760.91;4940124;29;19977;-71
2023/02/02 00:08:48;;;;;;;;;;;;;;;4.93;51.27;98748.13;4939991;29;19957;-71
2023/02/02 00:11:14;;;;;;;;;;;;;;;4.92;51.18;98765.41;4939269;29;19925;-71
2023/02/02 00:13:39;;;;;;;;;;;;;;;4.90;51.44;98751.69;4939714;29;19926;-71
2023/02/02 00:16:23;;;;;;;;;;;;;;;4.89;51.31;98766.41;4924195;29;20326;-71
2023/02/02 00:18:48;;;;;;;;;;;;;;;4.88;51.37;98767.31;4956376;29;19941;-71
2023/02/02 00:21:13;;;;;;;;;;;;;;;4.86;51.79;98766.56;4939184;29;20375;-71
2023/02/02 00:23:39;;;;;;;;;;;;;;;4.87;51.51;98763.06;4956900;29;19925;-71
2023/02/02 00:26:04;;;;;;;;;;;;;;;4.89;51.54;98765.56;4940078;29;19918;-71
2023/02/02 00:28:29;;;;;;;;;;;;;;;4.90;51.71;98772.41;4956929;29;20016;-72
2023/02/02 00:30:55;;;;;;;;;;;;;;;4.92;51.33;98769.72;4939644;29;19919;-70
2023/02/02 00:33:20;;;;;;;;;;;;;;;4.93;51.73;98763.66;4939322;29;19927;-71
2023/02/02 00:35:45;;;;;;;;;;;;;;;4.94;51.55;98757.56;4957113;29;19925;-70
2023/02/02 00:38:10;;;;;;;;;;;;;;;4.95;51.85;98751.47;4939648;29;19918;-70
2023/02/02 00:40:36;;;;;;;;;;;;;;;4.97;51.82;98754.81;4957201;29;19982;-71
2023/02/02 00:43:01;;;;;;;;;;;;;;;4.97;51.31;98749.66;4956490;29;19919;-71
2023/02/02 00:45:26;;;;;;;;;;;;;;;4.96;51.75;98755.72;4939567;29;20005;-71
2023/02/02 00:47:52;;;;;;;;;;;;;;;4.98;51.43;98772.00;4939764;29;20396;-71
2023/02/02 00:50:20;;;;;;;;;;;;;;;4.96;51.39;98771.25;4955225;28;19918;-71
2023/02/02 00:52:46;;;;;;;;;;;;;;;4.97;51.69;98770.34;4939780;29;20021;-70
2023/02/02 00:55:12;;;;;;;;;;;;;;;4.99;51.69;98764.16;4938926;28;20429;-70
2023/02/02 00:57:37;;;;;;;;;;;;;;;5.01;51.32;98770.09;4938738;29;19923;-71
2023/02/02 01:00:03;;;;;;;;;;;;;;;5.02;51.54;98766.59;4939050;29;19965;-70
2023/02/02 01:02:28;;;;;;;;;;;;;;;5.05;51.54;98763.00;4922720;29;19930;-70
2023/02/02 01:04:54;;;;;;;;;;;;;;;5.06;51.31;98756.91;4956540;29;19978;-70
2023/02/02 01:07:19;;;;;;;;;;;;;;;5.07;50.75;98756.00;4923160;29;20001;-70
2023/02/02 01:09:44;;;;;;;;;;;;;;;5.09;51.01;98748.97;4939003;29;20396;-70
2023/02/02 01:12:09;;;;;;;;;;;;;;;5.10;50.96;98753.25;4955188;28;19926;-71
2023/02/02 01:14:35;;;;;;;;;;;;;;;5.14;50.62;98764.25;4955998;29;19919;-71
2023/02/02 01:17:00;;;;;;;;;;;;;;;5.14;50.53;98767.69;4954979;28;19989;-70
2023/02/02 01:19:25;;;;;;;;;;;;;;;5.15;51.04;98776.28;4956531;29;19958;-71
2023/02/02 01:21:51;;;;;;;;;;;;;;;5.17;50.77;98783.06;4955858;29;19924;-71
2023/02/02 01:24:16;;;;;;;;;;;;;;;5.19;50.60;98785.56;4956379;29;20017;-72
2023/02/02 01:26:41;;;;;;;;;;;;;;;5.19;50.84;98778.63;4938831;29;19919;-72
2023/02/02 01:29:07;;;;;;;;;;;;;;;5.21;50.67;98771.63;4938665;29;19922;-71
2023/02/02 01:31:32;;;;;;;;;;;;;;;5.23;50.50;98777.56;4938587;29;19923;-71
2023/02/02 01:33:57;;;;;;;;;;;;;;;5.25;50.62;98769.72;4954446;28;19966;-71
2023/02/02 01:36:23;;;;;;;;;;;;;;;5.29;50.19;98773.78;4938628;29;19925;-71
2023/02/02 01:38:48;;;;;;;;;;;;;;;5.31;49.98;98758.19;4938496;29;20313;-71
2023/02/02 01:41:20;;;;;;;;;;;;;;;5.33;50.31;98772.72;4938794;29;19918;-71
2023/02/02 01:43:46;;;;;;;;;;;;;;;5.34;49.58;98756.25;4938462;29;20374;-70
2023/02/02 01:46:12;;;;;;;;;;;;;;;5.38;49.83;98762.94;4955384;29;19919;-71
2023/02/02 01:48:37;;;;;;;;;;;;;;;5.39;49.54;98754.28;4955249;29;20287;-71
2023/02/02 01:51:03;;;;;;;;;;;;;;;5.40;49.56;98752.50;4955218;29;19926;-70
2023/02/02 01:53:29;;;;;;;;;;;;;;;5.41;49.36;98744.66;4955227;29;19949;-71
2023/02/02 01:55:54;;;;;;;;;;;;;;;5.46;49.68;98743.56;4938534;29;19922;-71
2023/02/02 01:58:29;;;;;;;;;;;;;;;5.46;49.81;98741.81;4938154;29;20342;-71
2023/02/02 02:00:54;;;;;;;;;;;;;;;5.48;49.23;98750.31;4937992;29;20449;-71
2023/02/02 02:03:20;;;;;;;;;;;;;;;5.49;49.23;98740.78;4938088;29;19918;-71
2023/02/02 02:05:50;;;;;;;;;;;;;;;5.51;49.75;98751.91;4938288;29;19925;-71
2023/02/02 02:08:20;;;;;;;;;;;;;;;5.52;49.52;98750.97;4937880;29;19957;-71
2023/02/02 02:10:46;;;;;;;;;;;;;;;5.53;49.14;98747.47;4938017;29;19928;-70
2023/02/02 02:13:11;;;;;;;;;;;;;;;5.51;48.61;98744.16;4937709;29;20291;-71
2023/02/02 02:18:42;;;;;;;;;;;;;;;5.50;48.54;98743.28;4954989;29;20047;-71
2023/02/02 02:27:11;;;;;;;;;;;;;;;5.47;48.84;98734.88;4954750;29;19945;-71
2023/02/02 02:29:42;;;;;;;;;;;;;;;5.47;48.83;98743.50;4914563;29;19919;-71
2023/02/02 02:32:10;;;;;;;;;;;;;;;5.43;49.08;98745.41;4914063;29;20479;-71
2023/02/02 02:34:44;;;;;;;;;;;;;;;5.42;48.97;98741.16;4898982;29;19923;-71
2023/02/02 02:37:29;;;;;;;;;;;;;;;5.39;49.59;98746.50;4914634;29;19931;-71
2023/02/02 02:40:00;;;;;;;;;;;;;;;5.37;49.75;98748.31;4914626;29;20004;-71
2023/02/02 02:42:26;;;;;;;;;;;;;;;5.36;49.54;98748.41;4898887;29;19962;-71
2023/02/02 02:44:52;;;;;;;;;;;;;;;5.34;49.54;98750.25;4898635;29;19977;-71
2023/02/02 02:47:17;;;;;;;;;;;;;;;5.33;49.83;98749.41;4883018;29;19927;-71
2023/02/02 02:49:43;;;;;;;;;;;;;;;5.31;49.70;98747.81;4898907;29;19919;-71
2023/02/02 02:52:08;;;;;;;;;;;;;;;5.29;49.63;98737.56;4882955;29;20323;-71
2023/02/02 02:54:37;;;;;;;;;;;;;;;5.29;49.28;98747.91;4914452;29;19919;-71
2023/02/02 02:57:06;;;;;;;;;;;;;;;5.28;49.93;98743.63;4898532;29;20414;-71
2023/02/02 02:59:44;;;;;;;;;;;;;;;5.25;49.47;98736.91;4882644;29;20388;-71
2023/02/02 03:02:28;;;;;;;;;;;;;;;5.24;49.88;98739.56;4898647;29;20066;-71
2023/02/02 03:04:59;;;;;;;;;;;;;;;5.21;50.15;98748.31;4914437;29;19961;-71
2023/02/02 03:07:26;;;;;;;;;;;;;;;5.19;49.74;98744.16;4947875;29;19942;-71
2023/02/02 03:09:51;;;;;;;;;;;;;;;5.18;50.43;98745.06;4937453;29;19962;-71
2023/02/02 03:12:17;;;;;;;;;;;;;;;5.18;50.38;98751.06;4937002;29;19968;-71
2023/02/02 03:14:42;;;;;;;;;;;;;;;5.16;50.05;98752.09;4937271;29;19919;-71
2023/02/02 03:17:07;;;;;;;;;;;;;;;5.13;50.65;98753.06;4937342;29;20100;-71
2023/02/02 03:19:33;;;;;;;;;;;;;;;5.11;50.50;98754.06;4955765;28;19918;-71
2023/02/02 03:21:58;;;;;;;;;;;;;;;5.10;50.70;98761.00;4940934;29;19919;-71
2023/02/02 03:24:23;;;;;;;;;;;;;;;5.09;50.91;98754.16;4958801;29;19923;-71
2023/02/02 03:26:48;;;;;;;;;;;;;;;5.08;51.03;98758.50;4957410;29;20398;-71
2023/02/02 03:29:14;;;;;;;;;;;;;;;5.07;50.87;98750.81;4958209;29;19946;-71
2023/02/02 03:31:39;;;;;;;;;;;;;;;5.07;51.17;98743.88;4958286;29;19969;-70
2023/02/02 03:34:04;;;;;;;;;;;;;;;5.08;51.05;98744.75;4940974;29;19926;-71
2023/02/02 03:36:30;;;;;;;;;;;;;;;5.09;51.08;98741.22;4958196;29;20413;-71
2023/02/02 03:38:55;;;;;;;;;;;;;;;5.08;50.83;98745.56;4941209;29;19930;-71
2023/02/02 03:41:20;;;;;;;;;;;;;;;5.10;51.21;98747.25;4958157;29;19918;-71
2023/02/02 03:43:45;;;;;;;;;;;;;;;5.10;51.18;98752.41;4957725;29;19919;-71
2023/02/02 03:46:11;;;;;;;;;;;;;;;5.08;51.07;98744.75;4957928;29;19918;-71
2023/02/02 03:48:36;;;;;;;;;;;;;;;5.09;51.37;98748.97;4956931;28;20351;-71
2023/02/02 03:51:12;;;;;;;;;;;;;;;5.10;51.02;98744.66;4957927;29;19918;-71
2023/02/02 03:53:37;;;;;;;;;;;;;;;5.10;51.33;98744.66;4956637;28;19918;-71
2023/02/02 03:56:03;;;;;;;;;;;;;;;5.10;51.38;98747.25;4940485;29;19974;-71
2023/02/02 03:58:28;;;;;;;;;;;;;;;5.10;50.90;98749.81;4958084;29;19923;-71
2023/02/02 04:00:54;;;;;;;;;;;;;;;5.11;51.03;98749.75;4956553;29;19975;-71
2023/02/02 04:03:19;;;;;;;;;;;;;;;5.12;51.57;98751.41;4956195;29;19919;-71
2023/02/02 04:05:47;;;;;;;;;;;;;;;5.13;51.56;98752.25;4956101;29;20290;-71
2023/02/02 04:08:13;;;;;;;;;;;;;;;5.14;51.24;98748.72;4957304;29;19923;-71
2023/02/02 04:10:41;;;;;;;;;;;;;;;5.17;51.44;98756.31;4956610;29;20310;-71
2023/02/02 04:13:06;;;;;;;;;;;;;;;5.18;50.92;98752.84;4956256;29;19918;-71
2023/02/02 04:15:31;;;;;;;;;;;;;;;5.20;51.29;98754.44;4956307;29;19918;-71
2023/02/02 04:17:57;;;;;;;;;;;;;;;5.21;51.46;98750.09;4956077;29;19980;-71
2023/02/02 04:20:22;;;;;;;;;;;;;;;5.20;51.14;98751.00;4955602;29;19918;-70
2023/02/02 04:22:47;;;;;;;;;;;;;;;5.22;51.24;98752.59;4956156;29;20389;-70
2023/02/02 04:25:13;;;;;;;;;;;;;;;5.22;51.53;98751.75;4957222;29;19918;-72
2023/02/02 04:27:38;;;;;;;;;;;;;;;5.21;51.26;98744.91;4957061;29;19919;-72
2023/02/02 04:30:04;;;;;;;;;;;;;;;5.20;51.64;98746.66;4955674;28;20378;-70
2023/02/02 04:32:29;;;;;;;;;;;;;;;5.19;51.62;98741.56;4956844;29;19923;-70
2023/02/02 04:34:55;;;;;;;;;;;;;;;5.19;51.85;98733.81;4956881;29;20366;-71
2023/02/02 04:37:20;;;;;;;;;;;;;;;5.19;51.85;98726.88;4939537;29;19930;-71
2023/02/02 04:39:46;;;;;;;;;;;;;;;5.18;51.90;98737.31;4957115;29;20005;-71
2023/02/02 04:42:12;;;;;;;;;;;;;;;5.17;51.64;98749.41;4939601;29;19918;-71
2023/02/02 04:44:37;;;;;;;;;;;;;;;5.16;51.75;98752.09;4956837;29;20453;-70
2023/02/02 04:47:02;;;;;;;;;;;;;;;5.14;51.82;98749.59;4955651;29;19922;-70
2023/02/02 04:49:28;;;;;;;;;;;;;;;5.12;52.24;98751.41;4956766;29;19919;-71
2023/02/02 04:51:53;;;;;;;;;;;;;;;5.13;51.91;98754.84;4955845;28;19945;-71
2023/02/02 04:54:18;;;;;;;;;;;;;;;5.21;63.53;98757.84;4955455;29;19969;-72
2023/02/02 04:56:44;;;;;;;;;;;;;;;5.39;65.67;98763.75;4955346;29;19922;-71
2023/02/02 04:59:09;;;;;;;;;;;;;;;5.51;66.39;98762.28;4956434;29;19919;-71
2023/02/02 05:01:34;;;;;;;;;;;;;;;5.62;69.18;98760.75;4956552;29;20374;-71
2023/02/02 05:03:59;;;;;;;;;;;;;;;5.65;65.29;98762.34;4954279;29;20501;-70
2023/02/02 05:06:25;;;;;;;;;;;;;;;5.62;62.91;98771.09;4954929;29;19922;-73
2023/02/02 05:08:50;;;;;;;;;;;;;;;5.57;61.52;98765.34;4954880;29;19918;-72
2023/02/02 05:11:16;;;;;;;;;;;;;;;5.54;61.16;98770.69;4956275;29;19926;-72
2023/02/02 05:13:48;;;;;;;;;;;;;;;5.49;60.41;98769.28;4954435;29;20378;-73
2023/02/02 05:16:13;;;;;;;;;;;;;;;5.46;59.68;98775.47;4955027;29;19925;-75
2023/02/02 05:18:39;;;;;;;;;;;;;;;5.42;59.09;98774.81;4956123;29;19918;-75
2023/02/02 05:21:04;;;;;;;;;;;;;;;5.39;58.64;98781.88;4955057;29;19925;-70
2023/02/02 05:23:30;;;;;;;;;;;;;;;5.35;58.16;98783.81;4955829;29;19941;-73
2023/02/02 05:25:55;;;;;;;;;;;;;;;5.34;58.00;98776.97;4954910;29;19918;-73
2023/02/02 05:28:21;;;;;;;;;;;;;;;5.33;57.63;98772.72;4956037;29;19941;-73
2023/02/02 05:30:46;;;;;;;;;;;;;;;5.30;56.86;98766.84;4955006;29;19925;-73
2023/02/02 05:33:11;;;;;;;;;;;;;;;5.26;57.10;98766.19;4954448;29;19922;-74
2023/02/02 05:35:37;;;;;;;;;;;;;;;5.24;56.91;98776.63;4955202;29;19981;-74
2023/02/02 05:38:02;;;;;;;;;;;;;;;5.23;56.57;98771.53;4955718;29;20306;-74
2023/02/02 05:40:28;;;;;;;;;;;;;;;5.20;56.42;98776.88;4954573;29;19918;-74
2023/02/02 05:42:53;;;;;;;;;;;;;;;5.19;55.65;98783.81;4953927;28;19951;-75
2023/02/02 05:45:18;;;;;;;;;;;;;;;5.16;55.49;98778.78;4955749;29;19919;-75
2023/02/02 05:47:44;;;;;;;;;;;;;;;5.17;55.73;98784.78;4954554;29;19923;-74
2023/02/02 05:50:09;;;;;;;;;;;;;;;5.16;55.41;98781.38;4954418;29;19922;-74
2023/02/02 05:52:35;;;;;;;;;;;;;;;5.15;55.28;98784.06;4954453;29;19972;-74
2023/02/02 05:55:00;;;;;;;;;;;;;;;5.17;54.74;98785.66;4954347;29;20382;-72
2023/02/02 05:57:26;;;;;;;;;;;;;;;5.21;54.49;98781.13;4954484;29;20302;-73
2023/02/02 05:59:52;;;;;;;;;;;;;;;5.22;54.91;98782.81;4954508;29;19922;-74
2023/02/02 06:02:17;;;;;;;;;;;;;;;5.23;54.60;98772.38;4955702;29;19957;-73
2023/02/02 06:04:43;;;;;;;;;;;;;;;5.25;54.33;98778.31;4955469;29;19918;-74
2023/02/02 06:07:08;;;;;;;;;;;;;;;5.30;54.09;98778.06;4954821;28;20275;-74
2023/02/02 06:09:33;;;;;;;;;;;;;;;5.36;54.11;98779.47;4954224;29;19925;-74
2023/02/02 06:11:59;;;;;;;;;;;;;;;5.77;53.30;98782.38;4955308;29;19961;-73
2023/02/02 06:14:24;;;;;;;;;;;;;;;6.40;51.20;98783.16;4955390;29;19919;-74
2023/02/02 06:16:49;;;;;;;;;;;;;;;7.05;50.49;98787.09;4954243;29;19961;-73
2023/02/02 06:19:15;;;;;;;;;;;;;;;7.74;49.23;98788.00;4953960;29;19926;-74
2023/02/02 06:21:40;;;;;;;;;;;;;;;8.44;47.31;98786.13;4955313;29;19918;-73
2023/02/02 06:24:05;;;;;;;;;;;;;;;9.13;46.19;98797.06;4954144;28;20342;-75
2023/02/02 06:26:31;;;;;;;;;;;;;;;9.84;44.79;98793.84;4954272;29;19969;-73
2023/02/02 06:28:56;;;;;;;;;;;;;;;10.53;43.15;98790.56;4955491;29;19955;-74
2023/02/02 06:31:21;;;;;;;;;;;;;;;11.22;42.21;98795.72;4953792;29;19922;-76
2023/02/02 06:33:47;;;;;;;;;;;;;;;11.94;40.58;98789.19;4953948;29;19931;-76
2023/02/02 06:36:12;;;;;;;;;;;;;;;12.62;38.66;98792.31;4953841;29;19919;-75
2023/02/02 06:38:38;;;;;;;;;;;;;;;13.42;37.46;98792.53;4953206;29;19958;-74
2023/02/02 06:41:03;;;;;;;;;;;;;;;13.59;36.65;98790.25;4953964;29;20389;-75
2023/02/02 06:43:29;;;;;;;;;;;;;;;13.66;36.23;98776.47;4954821;29;20461;-74
2023/02/02 06:45:55;;;;;;;;;;;;;;;14.45;34.10;98786.00;4954582;29;19919;-74
2023/02/02 06:48:21;;;;;;;;;;;;;;;15.92;31.20;98782.75;4952902;29;20381;-75
2023/02/02 06:50:46;;;;;;;;;;;;;;;16.94;29.35;98785.84;4954491;29;19935;-75
2023/02/02 06:53:11;;;;;;;;;;;;;;;18.07;27.30;98777.63;4935554;28;19922;-76
2023/02/02 06:55:36;;;;;;;;;;;;;;;19.36;25.18;98777.78;4937014;29;19946;-77
2023/02/02 06:58:02;;;;;;;;;;;;;;;20.42;23.74;98778.91;4953838;29;20390;-74
2023/02/02 07:00:27;;;;;;;;;;;;;;;21.44;22.42;98780.97;4953412;29;19922;-73
2023/02/02 07:02:53;;;;;;;;;;;;;;;22.23;21.19;98772.19;4954557;29;19919;-74
2023/02/02 07:05:19;;;;;;;;;;;;;;;22.77;19.95;98768.13;4953211;29;19918;-74
2023/02/02 07:07:44;;;;;;;;;;;;;;;23.12;19.42;98773.47;4953509;29;19962;-78
2023/02/02 07:10:10;;;;;;;;;;;;;;;23.29;18.15;98767.78;4953739;29;20375;-77
2023/02/02 07:12:35;;;;;;;;;;;;;;;23.29;19.92;98765.97;4957503;29;19943;-79
2023/02/02 07:15:00;;;;;;;;;;;;;;;22.79;21.80;98764.44;4959253;29;20366;-74
2023/02/02 07:17:25;;;;;;;;;;;;;;;21.59;21.94;98769.53;4953253;29;19962;-72
2023/02/02 07:19:51;;;;;;;;;;;;;;;20.05;23.27;98768.09;4953330;29;20017;-75
2023/02/02 07:22:16;;;;;;;;;;;;;;;19.09;24.31;98774.56;4953505;29;19925;-73
2023/02/02 07:24:41;;;;;;;;;;;;;;;18.76;25.52;98772.78;4953335;29;20390;-74
2023/02/02 07:27:06;;;;;;;;;;;;;;;18.10;26.07;98765.94;4954428;29;19922;-73
2023/02/02 07:29:32;;;;;;;;;;;;;;;18.71;25.46;98769.84;4953316;29;19918;-74
2023/02/02 07:31:57;;;;;;;;;;;;;;;19.29;28.30;98767.03;4952944;29;19933;-76
2023/02/02 07:34:22;;;;;;;;;;;;;;;19.53;26.97;98772.22;4953790;29;19927;-73
2023/02/02 07:36:48;;;;;;;;;;;;;;;19.85;25.60;98766.94;4954337;29;19925;-76
2023/02/02 07:39:13;;;;;;;;;;;;;;;20.08;24.79;98768.75;4954549;29;19985;-76
2023/02/02 07:41:38;;;;;;;;;;;;;;;20.36;24.75;98769.00;4953228;28;19941;-76
2023/02/02 07:44:04;;;;;;;;;;;;;;;20.68;23.73;98765.25;4954419;29;20306;-75
2023/02/02 07:46:29;;;;;;;;;;;;;;;21.03;23.06;98767.38;4953922;29;20034;-74
2023/02/02 07:48:55;;;;;;;;;;;;;;;21.46;22.39;98760.34;4952732;29;19957;-75
2023/02/02 07:51:20;;;;;;;;;;;;;;;21.96;21.38;98757.81;4952949;29;20013;-74
2023/02/02 07:53:46;;;;;;;;;;;;;;;22.34;20.92;98756.75;4954075;28;19918;-74
2023/02/02 07:56:12;;;;;;;;;;;;;;;22.72;20.28;98756.41;4952804;29;19919;-75
2023/02/02 07:58:38;;;;;;;;;;;;;;;22.93;19.90;98744.88;4952960;29;20321;-74
2023/02/02 08:01:04;;;;;;;;;;;;;;;23.16;21.77;98743.78;4951384;29;19926;-74
2023/02/02 08:03:29;;;;;;;;;;;;;;;23.34;21.30;98751.22;4953780;29;19962;-72
2023/02/02 08:05:54;;;;;;;;;;;;;;;23.41;21.47;98746.75;4955619;28;19918;-74
2023/02/02 08:08:20;;;;;;;;;;;;;;;23.63;21.77;98755.41;4957736;29;19925;-76
2023/02/02 08:10:48;;;;;;;;;;;;;;;23.91;23.82;98765.97;4957658;29;19918;-74
2023/02/02 08:13:13;;;;;;;;;;;;;;;24.05;22.59;98749.97;4939517;29;19922;-75
2023/02/02 08:15:39;;;;;;;;;;;;;;;24.20;19.86;98748.75;4957778;29;19918;-73
2023/02/02 08:18:04;;;;;;;;;;;;;;;24.31;19.66;98741.16;4958387;29;19926;-75
2023/02/02 08:20:29;;;;;;;;;;;;;;;24.36;19.40;98750.19;4941212;29;19918;-81
2023/02/02 08:22:55;;;;;;;;;;;;;;;24.49;19.37;98746.69;4958981;29;19925;-86
2023/02/02 08:25:20;;;;;;;;;;;;;;;24.59;18.87;98746.31;4926261;29;19989;-80
2023/02/02 08:27:45;;;;;;;;;;;;;;;24.67;18.48;98745.25;4956710;28;20405;-81
2023/02/02 08:30:11;;;;;;;;;;;;;;;24.72;18.58;98750.81;4940869;29;19976;-80
2023/02/02 08:32:36;;;;;;;;;;;;;;;24.84;18.49;98749.13;4940380;29;19922;-82
2023/02/02 08:35:02;;;;;;;;;;;;;;;24.95;18.04;98755.66;4957214;29;19922;-78
2023/02/02 08:37:28;;;;;;;;;;;;;;;25.00;23.69;98766.53;4957160;29;19926;-75
2023/02/02 08:39:53;;;;;;;;;;;;;;;25.03;23.41;98773.28;4958156;29;20016;-79
2023/02/02 08:42:18;;;;;;;;;;;;;;;24.76;21.12;98767.22;4940907;29;19958;-82
2023/02/02 08:44:44;;;;;;;;;;;;;;;25.05;21.75;98768.59;4956114;29;19919;-74
2023/02/02 08:47:09;;;;;;;;;;;;;;;25.09;23.90;98772.47;4939702;29;19918;-70
2023/02/02 08:49:34;;;;;;;;;;;;;;;25.17;20.96;98768.75;4939631;29;20439;-73
2023/02/02 08:51:59;;;;;;;;;;;;;;;25.32;21.49;98765.81;4956711;29;19925;-74
2023/02/02 08:54:25;;;;;;;;;;;;;;;24.58;21.33;98775.88;4940121;29;19919;-78
2023/02/02 08:56:50;;;;;;;;;;;;;;;24.85;20.39;98784.66;4940005;29;20017;-76
2023/02/02 08:59:15;;;;;;;;;;;;;;;23.89;20.42;98775.19;4939507;29;19919;-78
2023/02/02 09:01:41;;;;;;;;;;;;;;;24.26;19.09;98765.78;4939261;29;20009;-76
2023/02/02 09:04:07;;;;;;;;;;;;;;;23.47;19.69;98768.06;4939482;29;19944;-75
2023/02/02 09:06:33;;;;;;;;;;;;;;;23.86;18.96;98775.59;4939553;29;19919;-74
2023/02/02 09:08:58;;;;;;;;;;;;;;;23.75;19.14;98766.28;4940223;29;19918;-74
2023/02/02 09:11:24;;;;;;;;;;;;;;;24.22;18.60;98742.41;4939502;29;20397;-74
2023/02/02 09:13:52;;;;;;;;;;;;;;;24.34;19.06;98762.09;4956595;29;20390;-75
2023/02/02 09:16:17;;;;;;;;;;;;;;;24.54;18.80;98754.91;4938972;28;19929;-77
2023/02/02 09:18:43;;;;;;;;;;;;;;;24.74;18.59;98764.75;4938608;29;19918;-80
2023/02/02 09:21:09;;;;;;;;;;;;;;;25.02;18.49;98753.78;4938823;29;19966;-80
2023/02/02 09:23:35;;;;;;;;;;;;;;;25.40;18.15;98752.25;4938110;29;19961;-75
2023/02/02 09:26:15;;;;;;;;;;;;;;;26.07;17.08;98752.66;4938013;29;19919;-76
2023/02/02 09:28:42;;;;;;;;;;;;;;;27.50;16.13;98741.97;4955090;29;20310;-77
2023/02/02 09:31:07;;;;;;;;;;;;;;;28.67;15.57;98737.91;4937841;29;20397;-76
2023/02/02 09:33:32;;;;;;;;;;;;;;;30.35;14.36;98732.41;4937594;29;19927;-76
2023/02/02 09:36:08;;;;;;;;;;;;;;;31.59;13.06;98732.13;4955564;29;19919;-78
2023/02/02 09:38:33;;;;;;;;;;;;;;;32.52;12.26;98731.00;4954336;29;19941;-77
2023/02/02 09:40:59;;;;;;;;;;;;;;;32.38;12.44;98724.44;4955992;29;20371;-77
2023/02/02 09:43:28;;;;;;;;;;;;;;;31.35;13.32;98707.31;4938533;29;20302;-75
2023/02/02 09:45:57;;;;;;;;;;;;;;;30.53;13.65;98709.00;4939111;29;19919;-76
2023/02/02 09:48:22;;;;;;;;;;;;;;;29.61;14.40;98706.44;4939000;29;19919;-76
2023/02/02 09:50:47;;;;;;;;;;;;;;;28.96;14.97;98703.03;4938845;29;19978;-75
2023/02/02 09:53:17;;;;;;;;;;;;;;;28.82;15.25;98696.28;4955614;29;19968;-75
2023/02/02 09:55:44;;;;;;;;;;;;;;;29.01;15.11;98692.38;4956138;29;19947;-77
2023/02/02 09:58:09;;;;;;;;;;;;;;;29.51;14.57;98682.03;4938376;29;19919;-75
2023/02/02 10:00:42;;;;;;;;;;;;;;;30.10;13.43;98679.00;4938540;29;20382;-76
2023/02/02 10:03:13;;;;;;;;;;;;;;;30.13;12.74;98675.81;4938005;29;19919;-76
2023/02/02 10:05:44;;;;;;;;;;;;;;;29.93;13.20;98673.63;4956200;29;19919;-78
2023/02/02 10:08:09;;;;;;;;;;;;;;;29.81;12.55;98668.34;4938871;29;19925;-79
2023/02/02 10:10:37;;;;;;;;;;;;;;;29.74;13.22;98673.81;4938261;29;19918;-75
2023/02/02 10:13:05;;;;;;;;;;;;;;;29.47;13.34;98670.94;4922625;29;20374;-77
2023/02/02 10:15:34;;;;;;;;;;;;;;;29.32;14.27;98673.38;4938390;29;19922;-81
2023/02/02 10:18:03;;;;;;;;;;;;;;;29.01;14.79;98676.25;4938270;29;20305;-77
2023/02/02 10:20:41;;;;;;;;;;;;;;;28.58;15.05;98674.06;4938131;29;19919;-78
2023/02/02 10:23:12;;;;;;;;;;;;;;;28.33;15.23;98667.84;4937994;29;20401;-77
2023/02/02 10:25:37;;;;;;;;;;;;;;;28.02;15.50;98678.94;4938676;29;19969;-77
2023/02/02 10:28:07;;;;;;;;;;;;;;;27.89;15.80;98675.38;4938252;28;19982;-79
2023/02/02 10:30:43;;;;;;;;;;;;;;;27.79;15.70;98673.28;4938003;29;20345;-77
2023/02/02 10:33:22;;;;;;;;;;;;;;;27.26;16.11;98655.25;4937809;29;20412;-79
2023/02/02 10:36:07;;;;;;;;;;;;;;;26.48;16.20;98657.63;4938760;29;20001;-76
2023/02/02 10:38:32;;;;;;;;;;;;;;;26.47;16.74;98658.69;4938529;29;19918;-77
2023/02/02 10:41:02;;;;;;;;;;;;;;;26.38;17.09;98654.66;4937953;29;19923;-77
2023/02/02 10:43:46;;;;;;;;;;;;;;;26.33;17.47;98654.50;4937921;29;19919;-75
2023/02/02 10:46:20;;;;;;;;;;;;;;;26.00;16.66;98637.72;4938628;29;19962;-77
2023/02/02 10:48:46;;;;;;;;;;;;;;;25.64;17.40;98641.09;4937849;29;19919;-76
2023/02/02 10:51:16;;;;;;;;;;;;;;;25.13;17.72;98641.97;4938048;29;19950;-77
2023/02/02 10:53:42;;;;;;;;;;;;;;;24.52;18.37;98644.06;4937844;29;20029;-76
2023/02/02 10:56:10;;;;;;;;;;;;;;;23.90;18.48;98636.38;4937453;29;19995;-79
2023/02/02 10:58:54;;;;;;;;;;;;;;;23.38;18.94;98637.94;4938740;29;19930;-77
2023/02/02 11:01:21;;;;;;;;;;;;;;;23.15;19.42;98636.47;4955021;29;19919;-77
2023/02/02 11:03:46;;;;;;;;;;;;;;;22.83;19.84;98644.09;4938081;29;19968;-77
2023/02/02 11:08:58;;;;;;;;;;;;;;;22.33;19.88;98627.47;4940909;29;19930;-77
2023/02/02 11:11:45;;;;;;;;;;;;;;;22.07;20.33;98618.28;4937820;29;19968;-77
2023/02/02 11:14:14;;;;;;;;;;;;;;;21.81;21.12;98619.75;4954914;29;19927;-79
2023/02/02 11:16:42;;;;;;;;;;;;;;;21.42;21.22;98623.66;4937746;29;19925;-76
2023/02/02 11:19:20;;;;;;;;;;;;;;;21.15;20.92;98610.09;4937667;29;20065;-77
2023/02/02 11:21:48;;;;;;;;;;;;;;;21.28;20.83;98606.75;4937699;29;19942;-77
2023/02/02 11:24:20;;;;;;;;;;;;;;;21.52;20.53;98596.00;4937406;29;19961;-77
2023/02/02 11:26:55;;;;;;;;;;;;;;;21.70;20.99;98596.34;4937672;29;20009;-76
2023/02/02 11:29:27;;;;;;;;;;;;;;;21.47;21.28;98596.53;4937680;29;19919;-76
2023/02/02 11:31:52;;;;;;;;;;;;;;;21.28;20.86;98585.53;4937961;28;20387;-77
2023/02/02 11:34:18;;;;;;;;;;;;;;;21.28;21.02;98576.75;4937295;29;19926;-77
2023/02/02 11:37:02;;;;;;;;;;;;;;;21.42;21.24;98577.69;4953429;28;19918;-79
2023/02/02 11:39:28;;;;;;;;;;;;;;;21.37;20.44;98565.00;4953394;28;20370;-75
2023/02/02 11:42:06;;;;;;;;;;;;;;;21.37;20.33;98559.69;4957632;29;19918;-75
2023/02/02 11:44:34;;;;;;;;;;;;;;;21.10;21.03;98556.78;4941349;29;20294;-76
2023/02/02 11:46:59;;;;;;;;;;;;;;;21.01;20.20;98559.75;4925400;29;19925;-77
2023/02/02 11:49:24;;;;;;;;;;;;;;;20.96;18.16;98557.66;4941390;29;19919;-78
2023/02/02 11:51:57;;;;;;;;;;;;;;;20.73;19.03;98550.69;4940783;29;19918;-78
2023/02/02 11:54:29;;;;;;;;;;;;;;;20.48;20.07;98558.13;4940912;29;19918;-77
2023/02/02 11:56:55;;;;;;;;;;;;;;;20.25;20.06;98558.22;4940771;29;19922;-77
2023/02/02 11:59:27;;;;;;;;;;;;;;;20.01;20.74;98554.03;4940970;29;19918;-78
2023/02/02 12:02:08;;;;;;;;;;;;;;;20.00;20.89;98555.88;4940689;29;19941;-76
2023/02/02 12:04:33;;;;;;;;;;;;;;;19.87;21.38;98550.38;4940727;29;19922;-76
2023/02/02 12:06:58;;;;;;;;;;;;;;;19.73;21.84;98544.00;4940645;29;20370;-76
2023/02/02 12:09:24;;;;;;;;;;;;;;;19.57;21.98;98539.69;4957517;29;19942;-75
2023/02/02 12:12:04;;;;;;;;;;;;;;;19.40;22.50;98535.53;4940491;29;20386;-77
2023/02/02 12:14:36;;;;;;;;;;;;;;;19.21;22.56;98526.28;4940373;29;19927;-77
2023/02/02 12:17:12;;;;;;;;;;;;;;;18.98;22.54;98541.16;4940392;29;20013;-76
2023/02/02 12:19:56;;;;;;;;;;;;;;;18.85;22.42;98533.00;4940462;29;19925;-75
2023/02/02 12:22:21;;;;;;;;;;;;;;;18.75;21.91;98530.50;4956232;29;20291;-77
2023/02/02 12:24:53;;;;;;;;;;;;;;;18.65;21.48;98524.66;4957355;29;19977;-76
2023/02/02 12:27:18;;;;;;;;;;;;;;;18.44;21.94;98515.50;4957466;29;19926;-76
2023/02/02 12:29:47;;;;;;;;;;;;;;;18.32;22.64;98530.09;4957311;29;19942;-76
2023/02/02 12:32:16;;;;;;;;;;;;;;;18.20;23.03;98524.38;4957170;29;20370;-77
2023/02/02 12:35:00;;;;;;;;;;;;;;;18.11;22.90;98519.28;4940129;29;19922;-75
2023/02/02 12:37:32;;;;;;;;;;;;;;;17.97;23.12;98526.09;4955814;29;19915;-78
2023/02/02 12:40:16;;;;;;;;;;;;;;;17.88;23.75;98528.78;4939925;29;19918;-77
2023/02/02 12:42:49;;;;;;;;;;;;;;;17.81;23.87;98530.38;4956866;29;20429;-75
2023/02/02 12:45:34;;;;;;;;;;;;;;;17.77;24.15;98530.91;4940227;29;19922;-76
2023/02/02 12:48:06;;;;;;;;;;;;;;;17.72;24.59;98520.84;4957252;29;19918;-77
2023/02/02 12:50:50;;;;;;;;;;;;;;;17.68;24.53;98527.47;4939876;29;19918;-76
2023/02/02 12:53:34;;;;;;;;;;;;;;;17.65;25.11;98519.88;4954293;29;19918;-76
2023/02/02 12:56:05;;;;;;;;;;;;;;;17.56;25.22;98515.59;4956848;29;19919;-75
2023/02/02 12:58:30;;;;;;;;;;;;;;;17.58;25.23;98511.78;4956741;29;19926;-75
2023/02/02 13:01:10;;;;;;;;;;;;;;;17.56;25.27;98511.13;4957027;29;19919;-75
2023/02/02 13:03:41;;;;;;;;;;;;;;;17.49;25.47;98510.13;4956750;29;20370;-76
2023/02/02 13:06:11;;;;;;;;;;;;;;;17.42;25.58;98511.81;4940003;29;20291;-76